sensor_id;sensor_type;location;lat;lon;timestamp;temperature;humidity
592;DHT22;283;53.608;10.046;2022-11-20T00:00:23;2.90;88.90
592;DHT22;283;53.608;10.046;2022-11-20T00:02:51;3.00;88.90
592;DHT22;283;53.608;10.046;2022-11-20T00:05:18;2.90;89.20
592;DHT22;283;53.608;10.046;2022-11-20T00:07:48;2.90;89.50
592;DHT22;283;53.608;10.046;2022-11-20T00:10:16;2.90;89.40
592;DHT22;283;53.608;10.046;2022-11-20T00:12:43;2.90;89.20
592;DHT22;283;53.608;10.046;2022-11-20T00:15:11;3.00;89.20
592;DHT22;283;53.608;10.046;2022-11-20T00:17:39;3.00;89.50
592;DHT22;283;53.608;10.046;2022-11-20T00:20:07;2.90;89.40
592;DHT22;283;53.608;10.046;2022-11-20T00:22:35;2.90;89.80
592;DHT22;283;53.608;10.046;2022-11-20T00:25:04;3.00;89.40
592;DHT22;283;53.608;10.046;2022-11-20T00:27:32;3.00;89.40
592;DHT22;283;53.608;10.046;2022-11-20T00:29:59;2.90;89.60
592;DHT22;283;53.608;10.046;2022-11-20T00:32:27;2.70;90.30
592;DHT22;283;53.608;10.046;2022-11-20T00:34:55;2.80;90.30
592;DHT22;283;53.608;10.046;2022-11-20T00:37:22;2.80;90.10
592;DHT22;283;53.608;10.046;2022-11-20T00:39:50;2.80;90.30
592;DHT22;283;53.608;10.046;2022-11-20T00:42:19;2.80;90.40
592;DHT22;283;53.608;10.046;2022-11-20T00:44:46;2.80;90.20
592;DHT22;283;53.608;10.046;2022-11-20T00:47:14;2.80;90.20
592;DHT22;283;53.608;10.046;2022-11-20T00:49:41;2.80;90.20
592;DHT22;283;53.608;10.046;2022-11-20T00:52:09;2.80;90.30
592;DHT22;283;53.608;10.046;2022-11-20T00:54:36;2.80;90.20
592;DHT22;283;53.608;10.046;2022-11-20T00:57:04;2.80;90.30
592;DHT22;283;53.608;10.046;2022-11-20T00:59:33;2.80;90.20
592;DHT22;283;53.608;10.046;2022-11-20T01:02:00;2.80;90.40
592;DHT22;283;53.608;10.046;2022-11-20T01:04:28;2.70;90.50
592;DHT22;283;53.608;10.046;2022-11-20T01:06:56;2.80;90.50
592;DHT22;283;53.608;10.046;2022-11-20T01:09:23;2.70;90.80
592;DHT22;283;53.608;10.046;2022-11-20T01:11:51;2.90;90.80
592;DHT22;283;53.608;10.046;2022-11-20T01:14:19;2.90;90.70
592;DHT22;283;53.608;10.046;2022-11-20T01:16:48;2.80;91.00
592;DHT22;283;53.608;10.046;2022-11-20T01:19:17;2.80;90.90
592;DHT22;283;53.608;10.046;2022-11-20T01:21:49;2.90;91.10
592;DHT22;283;53.608;10.046;2022-11-20T01:24:18;2.90;91.40
592;DHT22;283;53.608;10.046;2022-11-20T01:26:46;2.90;91.20
592;DHT22;283;53.608;10.046;2022-11-20T01:29:15;2.70;91.70
592;DHT22;283;53.608;10.046;2022-11-20T01:31:44;2.70;92.20
592;DHT22;283;53.608;10.046;2022-11-20T01:34:13;2.80;92.10
592;DHT22;283;53.608;10.046;2022-11-20T01:36:41;2.90;92.30
592;DHT22;283;53.608;10.046;2022-11-20T01:39:10;2.80;92.30
592;DHT22;283;53.608;10.046;2022-11-20T01:41:38;2.70;92.40
592;DHT22;283;53.608;10.046;2022-11-20T01:47:06;2.70;93.50
592;DHT22;283;53.608;10.046;2022-11-20T01:49:37;2.60;93.30
592;DHT22;283;53.608;10.046;2022-11-20T01:52:07;2.70;93.10
592;DHT22;283;53.608;10.046;2022-11-20T01:54:38;2.70;93.30
592;DHT22;283;53.608;10.046;2022-11-20T01:57:08;2.60;93.50
592;DHT22;283;53.608;10.046;2022-11-20T01:59:37;2.60;93.50
592;DHT22;283;53.608;10.046;2022-11-20T02:02:07;2.70;93.40
592;DHT22;283;53.608;10.046;2022-11-20T02:04:36;2.70;93.60
592;DHT22;283;53.608;10.046;2022-11-20T02:07:04;2.80;93.50
592;DHT22;283;53.608;10.046;2022-11-20T02:09:32;2.60;93.30
592;DHT22;283;53.608;10.046;2022-11-20T02:11:59;2.80;93.40
592;DHT22;283;53.608;10.046;2022-11-20T02:20:16;2.70;93.20
592;DHT22;283;53.608;10.046;2022-11-20T02:22:46;2.70;93.10
592;DHT22;283;53.608;10.046;2022-11-20T02:25:16;2.80;93.40
592;DHT22;283;53.608;10.046;2022-11-20T02:27:45;2.80;93.20
592;DHT22;283;53.608;10.046;2022-11-20T02:30:12;3.00;92.80
592;DHT22;283;53.608;10.046;2022-11-20T02:32:40;2.80;92.80
592;DHT22;283;53.608;10.046;2022-11-20T02:35:08;3.00;92.60
592;DHT22;283;53.608;10.046;2022-11-20T02:37:36;2.80;93.00
592;DHT22;283;53.608;10.046;2022-11-20T02:40:05;2.80;93.10
592;DHT22;283;53.608;10.046;2022-11-20T02:42:34;2.70;93.10
592;DHT22;283;53.608;10.046;2022-11-20T02:45:02;2.70;92.90
592;DHT22;283;53.608;10.046;2022-11-20T02:47:30;2.70;92.60
592;DHT22;283;53.608;10.046;2022-11-20T02:49:58;2.70;92.90
592;DHT22;283;53.608;10.046;2022-11-20T02:52:25;2.80;92.80
592;DHT22;283;53.608;10.046;2022-11-20T02:54:53;2.80;93.00
592;DHT22;283;53.608;10.046;2022-11-20T02:57:21;3.00;92.90
592;DHT22;283;53.608;10.046;2022-11-20T02:59:50;2.60;92.80
592;DHT22;283;53.608;10.046;2022-11-20T03:02:17;2.60;93.30
592;DHT22;283;53.608;10.046;2022-11-20T03:04:45;2.70;92.40
592;DHT22;283;53.608;10.046;2022-11-20T03:07:13;2.60;92.70
592;DHT22;283;53.608;10.046;2022-11-20T03:09:40;2.60;92.70
592;DHT22;283;53.608;10.046;2022-11-20T03:12:08;2.70;92.70
592;DHT22;283;53.608;10.046;2022-11-20T03:14:36;2.70;92.50
592;DHT22;283;53.608;10.046;2022-11-20T03:17:05;2.40;92.60
592;DHT22;283;53.608;10.046;2022-11-20T03:19:33;2.80;92.80
592;DHT22;283;53.608;10.046;2022-11-20T03:22:01;2.60;92.80
592;DHT22;283;53.608;10.046;2022-11-20T03:24:28;2.80;92.70
592;DHT22;283;53.608;10.046;2022-11-20T03:26:56;2.60;92.50
592;DHT22;283;53.608;10.046;2022-11-20T03:29:24;2.90;92.50
592;DHT22;283;53.608;10.046;2022-11-20T03:31:51;2.70;92.50
592;DHT22;283;53.608;10.046;2022-11-20T03:34:20;2.60;92.90
592;DHT22;283;53.608;10.046;2022-11-20T03:36:48;2.70;92.80
592;DHT22;283;53.608;10.046;2022-11-20T03:39:16;2.90;92.50
592;DHT22;283;53.608;10.046;2022-11-20T03:41:44;2.70;92.30
592;DHT22;283;53.608;10.046;2022-11-20T03:44:11;2.90;92.30
592;DHT22;283;53.608;10.046;2022-11-20T03:46:39;2.90;92.50
592;DHT22;283;53.608;10.046;2022-11-20T03:49:07;2.70;92.40
592;DHT22;283;53.608;10.046;2022-11-20T03:51:36;2.80;92.40
592;DHT22;283;53.608;10.046;2022-11-20T03:54:04;2.70;92.60
592;DHT22;283;53.608;10.046;2022-11-20T03:56:32;2.60;92.70
592;DHT22;283;53.608;10.046;2022-11-20T03:59:00;2.60;92.80
592;DHT22;283;53.608;10.046;2022-11-20T04:01:31;2.60;92.20
592;DHT22;283;53.608;10.046;2022-11-20T04:03:59;2.70;92.40
592;DHT22;283;53.608;10.046;2022-11-20T04:06:27;2.50;92.20
592;DHT22;283;53.608;10.046;2022-11-20T04:08:56;2.50;92.80
592;DHT22;283;53.608;10.046;2022-11-20T04:11:25;2.60;92.80
592;DHT22;283;53.608;10.046;2022-11-20T04:13:53;2.70;92.70
592;DHT22;283;53.608;10.046;2022-11-20T04:16:22;2.60;92.80
592;DHT22;283;53.608;10.046;2022-11-20T04:18:51;2.60;92.70
592;DHT22;283;53.608;10.046;2022-11-20T04:21:19;2.40;92.90
592;DHT22;283;53.608;10.046;2022-11-20T04:23:46;2.50;92.60
592;DHT22;283;53.608;10.046;2022-11-20T04:26:15;2.60;92.40
592;DHT22;283;53.608;10.046;2022-11-20T04:28:43;2.80;92.90
592;DHT22;283;53.608;10.046;2022-11-20T04:31:11;2.90;92.50
592;DHT22;283;53.608;10.046;2022-11-20T04:33:40;2.80;92.90
592;DHT22;283;53.608;10.046;2022-11-20T04:36:10;2.60;93.30
592;DHT22;283;53.608;10.046;2022-11-20T04:38:38;2.50;93.00
592;DHT22;283;53.608;10.046;2022-11-20T04:41:07;2.50;92.70
592;DHT22;283;53.608;10.046;2022-11-20T04:43:36;2.60;93.00
592;DHT22;283;53.608;10.046;2022-11-20T04:46:04;2.90;92.90
592;DHT22;283;53.608;10.046;2022-11-20T04:48:32;2.60;92.70
592;DHT22;283;53.608;10.046;2022-11-20T04:51:02;2.80;92.90
592;DHT22;283;53.608;10.046;2022-11-20T04:53:30;2.50;93.30
592;DHT22;283;53.608;10.046;2022-11-20T04:55:59;2.60;93.00
592;DHT22;283;53.608;10.046;2022-11-20T04:58:26;2.50;93.30
592;DHT22;283;53.608;10.046;2022-11-20T05:01:01;2.50;93.20
592;DHT22;283;53.608;10.046;2022-11-20T05:03:29;2.50;93.50
592;DHT22;283;53.608;10.046;2022-11-20T05:05:59;2.50;93.20
592;DHT22;283;53.608;10.046;2022-11-20T05:08:27;2.50;93.60
592;DHT22;283;53.608;10.046;2022-11-20T05:10:58;2.40;93.10
592;DHT22;283;53.608;10.046;2022-11-20T05:13:26;2.40;93.80
592;DHT22;283;53.608;10.046;2022-11-20T05:15:54;2.50;93.10
592;DHT22;283;53.608;10.046;2022-11-20T05:18:23;2.50;93.20
592;DHT22;283;53.608;10.046;2022-11-20T05:20:54;2.40;93.70
592;DHT22;283;53.608;10.046;2022-11-20T05:23:21;2.40;93.90
592;DHT22;283;53.608;10.046;2022-11-20T05:25:51;2.40;93.50
592;DHT22;283;53.608;10.046;2022-11-20T05:28:24;2.60;93.60
592;DHT22;283;53.608;10.046;2022-11-20T05:30:55;2.50;93.40
592;DHT22;283;53.608;10.046;2022-11-20T05:33:24;2.70;93.50
592;DHT22;283;53.608;10.046;2022-11-20T05:35:52;2.60;93.50
592;DHT22;283;53.608;10.046;2022-11-20T05:38:19;2.60;93.00
592;DHT22;283;53.608;10.046;2022-11-20T05:40:47;2.80;93.00
592;DHT22;283;53.608;10.046;2022-11-20T05:43:14;2.50;93.10
592;DHT22;283;53.608;10.046;2022-11-20T05:45:42;2.50;93.00
592;DHT22;283;53.608;10.046;2022-11-20T05:48:10;2.50;93.10
592;DHT22;283;53.608;10.046;2022-11-20T05:50:39;2.60;93.00
592;DHT22;283;53.608;10.046;2022-11-20T05:53:07;2.60;93.40
592;DHT22;283;53.608;10.046;2022-11-20T05:55:34;2.60;93.00
592;DHT22;283;53.608;10.046;2022-11-20T05:58:02;2.50;93.10
592;DHT22;283;53.608;10.046;2022-11-20T06:00:30;2.40;93.10
592;DHT22;283;53.608;10.046;2022-11-20T06:02:57;2.50;93.60
592;DHT22;283;53.608;10.046;2022-11-20T06:05:25;2.30;93.70
592;DHT22;283;53.608;10.046;2022-11-20T06:07:54;2.20;93.90
592;DHT22;283;53.608;10.046;2022-11-20T06:10:22;2.10;94.60
592;DHT22;283;53.608;10.046;2022-11-20T06:12:49;2.20;94.30
592;DHT22;283;53.608;10.046;2022-11-20T06:15:17;2.20;94.70
592;DHT22;283;53.608;10.046;2022-11-20T06:17:45;2.20;94.10
592;DHT22;283;53.608;10.046;2022-11-20T06:20:14;2.20;94.20
592;DHT22;283;53.608;10.046;2022-11-20T06:22:41;2.10;94.60
592;DHT22;283;53.608;10.046;2022-11-20T06:25:10;2.30;94.00
592;DHT22;283;53.608;10.046;2022-11-20T06:27:38;2.30;94.40
592;DHT22;283;53.608;10.046;2022-11-20T06:30:06;2.30;93.70
592;DHT22;283;53.608;10.046;2022-11-20T06:32:34;2.20;94.80
592;DHT22;283;53.608;10.046;2022-11-20T06:35:02;2.20;94.00
592;DHT22;283;53.608;10.046;2022-11-20T06:37:30;2.00;94.30
592;DHT22;283;53.608;10.046;2022-11-20T06:39:58;1.70;94.00
592;DHT22;283;53.608;10.046;2022-11-20T06:42:28;1.80;94.60
592;DHT22;283;53.608;10.046;2022-11-20T06:44:55;1.90;95.50
592;DHT22;283;53.608;10.046;2022-11-20T06:47:23;2.00;95.00
592;DHT22;283;53.608;10.046;2022-11-20T06:49:51;1.80;95.20
592;DHT22;283;53.608;10.046;2022-11-20T06:52:18;1.90;95.00
592;DHT22;283;53.608;10.046;2022-11-20T06:54:46;2.10;95.00
592;DHT22;283;53.608;10.046;2022-11-20T06:57:13;1.90;94.60
592;DHT22;283;53.608;10.046;2022-11-20T06:59:43;1.90;94.60
592;DHT22;283;53.608;10.046;2022-11-20T07:02:10;2.00;94.80
592;DHT22;283;53.608;10.046;2022-11-20T07:04:39;2.00;94.50
592;DHT22;283;53.608;10.046;2022-11-20T07:07:06;1.90;94.50
592;DHT22;283;53.608;10.046;2022-11-20T07:09:34;2.00;94.60
592;DHT22;283;53.608;10.046;2022-11-20T07:12:02;1.90;94.80
592;DHT22;283;53.608;10.046;2022-11-20T07:14:30;2.30;95.00
592;DHT22;283;53.608;10.046;2022-11-20T07:16:59;2.30;94.80
592;DHT22;283;53.608;10.046;2022-11-20T07:19:26;2.10;95.10
592;DHT22;283;53.608;10.046;2022-11-20T07:21:54;1.90;95.00
592;DHT22;283;53.608;10.046;2022-11-20T07:24:22;1.90;95.10
592;DHT22;283;53.608;10.046;2022-11-20T07:26:49;1.90;95.10
592;DHT22;283;53.608;10.046;2022-11-20T07:29:17;1.80;95.10
592;DHT22;283;53.608;10.046;2022-11-20T07:31:46;1.90;95.00
592;DHT22;283;53.608;10.046;2022-11-20T07:34:15;2.00;94.70
592;DHT22;283;53.608;10.046;2022-11-20T07:36:42;2.10;95.00
592;DHT22;283;53.608;10.046;2022-11-20T07:39:12;2.10;94.60
592;DHT22;283;53.608;10.046;2022-11-20T07:41:49;2.00;94.50
592;DHT22;283;53.608;10.046;2022-11-20T07:44:17;2.10;94.40
592;DHT22;283;53.608;10.046;2022-11-20T07:46:45;2.10;94.00
592;DHT22;283;53.608;10.046;2022-11-20T07:49:12;2.10;93.80
592;DHT22;283;53.608;10.046;2022-11-20T07:51:41;2.20;94.00
592;DHT22;283;53.608;10.046;2022-11-20T07:54:09;2.20;93.60
592;DHT22;283;53.608;10.046;2022-11-20T07:56:37;2.20;93.30
592;DHT22;283;53.608;10.046;2022-11-20T07:59:04;2.40;92.90
592;DHT22;283;53.608;10.046;2022-11-20T08:01:32;2.40;92.70
592;DHT22;283;53.608;10.046;2022-11-20T08:04:00;2.40;92.60
592;DHT22;283;53.608;10.046;2022-11-20T08:06:27;2.40;92.60
592;DHT22;283;53.608;10.046;2022-11-20T08:08:57;2.40;92.40
592;DHT22;283;53.608;10.046;2022-11-20T08:11:25;2.50;92.70
592;DHT22;283;53.608;10.046;2022-11-20T08:14:10;2.60;92.80
592;DHT22;283;53.608;10.046;2022-11-20T08:16:41;2.60;92.30
592;DHT22;283;53.608;10.046;2022-11-20T08:19:09;2.90;92.50
592;DHT22;283;53.608;10.046;2022-11-20T08:21:37;2.60;92.70
592;DHT22;283;53.608;10.046;2022-11-20T08:24:06;2.70;92.20
592;DHT22;283;53.608;10.046;2022-11-20T08:26:35;2.60;92.60
592;DHT22;283;53.608;10.046;2022-11-20T08:29:03;2.70;92.70
592;DHT22;283;53.608;10.046;2022-11-20T08:31:31;2.50;92.80
592;DHT22;283;53.608;10.046;2022-11-20T08:33:59;2.90;92.60
592;DHT22;283;53.608;10.046;2022-11-20T08:36:33;2.60;92.30
592;DHT22;283;53.608;10.046;2022-11-20T08:39:01;2.70;92.40
592;DHT22;283;53.608;10.046;2022-11-20T08:41:31;2.50;92.90
592;DHT22;283;53.608;10.046;2022-11-20T08:44:04;2.70;92.60
592;DHT22;283;53.608;10.046;2022-11-20T08:46:49;2.80;92.90
592;DHT22;283;53.608;10.046;2022-11-20T08:49:17;2.50;92.90
592;DHT22;283;53.608;10.046;2022-11-20T08:51:45;2.60;93.20
592;DHT22;283;53.608;10.046;2022-11-20T08:54:18;2.60;93.00
592;DHT22;283;53.608;10.046;2022-11-20T08:56:52;2.70;93.70
592;DHT22;283;53.608;10.046;2022-11-20T08:59:19;2.80;93.30
592;DHT22;283;53.608;10.046;2022-11-20T09:02:10;3.00;93.00
592;DHT22;283;53.608;10.046;2022-11-20T09:04:38;2.90;93.70
592;DHT22;283;53.608;10.046;2022-11-20T09:07:06;2.70;94.60
592;DHT22;283;53.608;10.046;2022-11-20T09:09:34;2.60;94.50
592;DHT22;283;53.608;10.046;2022-11-20T09:12:03;2.60;95.00
592;DHT22;283;53.608;10.046;2022-11-20T09:14:33;2.50;95.70
592;DHT22;283;53.608;10.046;2022-11-20T09:17:00;2.50;95.50
592;DHT22;283;53.608;10.046;2022-11-20T09:19:28;2.80;95.50
592;DHT22;283;53.608;10.046;2022-11-20T09:22:03;2.80;95.20
592;DHT22;283;53.608;10.046;2022-11-20T09:24:31;2.90;94.90
592;DHT22;283;53.608;10.046;2022-11-20T09:27:03;2.70;94.70
592;DHT22;283;53.608;10.046;2022-11-20T09:29:33;2.80;95.40
592;DHT22;283;53.608;10.046;2022-11-20T09:32:00;2.70;95.90
592;DHT22;283;53.608;10.046;2022-11-20T09:34:28;2.90;96.30
592;DHT22;283;53.608;10.046;2022-11-20T09:36:56;2.80;95.20
592;DHT22;283;53.608;10.046;2022-11-20T09:39:29;2.80;94.70
592;DHT22;283;53.608;10.046;2022-11-20T09:44:57;2.90;95.10
592;DHT22;283;53.608;10.046;2022-11-20T09:47:32;2.90;94.90
592;DHT22;283;53.608;10.046;2022-11-20T09:50:05;2.80;95.50
592;DHT22;283;53.608;10.046;2022-11-20T09:52:37;3.00;95.00
592;DHT22;283;53.608;10.046;2022-11-20T09:55:10;3.00;94.60
592;DHT22;283;53.608;10.046;2022-11-20T09:57:40;3.00;94.90
592;DHT22;283;53.608;10.046;2022-11-20T10:02:44;2.90;95.00
592;DHT22;283;53.608;10.046;2022-11-20T10:05:17;3.30;94.30
592;DHT22;283;53.608;10.046;2022-11-20T10:07:48;3.00;94.10
592;DHT22;283;53.608;10.046;2022-11-20T10:10:25;3.20;94.10
592;DHT22;283;53.608;10.046;2022-11-20T10:12:59;3.00;93.50
592;DHT22;283;53.608;10.046;2022-11-20T10:15:32;3.50;94.00
592;DHT22;283;53.608;10.046;2022-11-20T10:20:48;3.40;93.60
592;DHT22;283;53.608;10.046;2022-11-20T10:23:35;3.30;93.70
592;DHT22;283;53.608;10.046;2022-11-20T10:26:16;3.30;93.20
592;DHT22;283;53.608;10.046;2022-11-20T10:28:48;3.40;93.50
592;DHT22;283;53.608;10.046;2022-11-20T10:31:35;3.10;93.20
592;DHT22;283;53.608;10.046;2022-11-20T10:34:06;3.20;93.50
592;DHT22;283;53.608;10.046;2022-11-20T10:36:54;3.20;92.30
592;DHT22;283;53.608;10.046;2022-11-20T10:39:26;3.30;93.00
592;DHT22;283;53.608;10.046;2022-11-20T10:41:55;3.40;92.30
592;DHT22;283;53.608;10.046;2022-11-20T10:44:26;3.30;92.40
592;DHT22;283;53.608;10.046;2022-11-20T10:47:12;3.40;92.40
592;DHT22;283;53.608;10.046;2022-11-20T10:49:48;3.30;91.90
592;DHT22;283;53.608;10.046;2022-11-20T10:52:19;3.30;92.10
592;DHT22;283;53.608;10.046;2022-11-20T10:54:55;3.20;92.00
592;DHT22;283;53.608;10.046;2022-11-20T10:57:32;3.30;91.70
592;DHT22;283;53.608;10.046;2022-11-20T11:00:06;2.90;92.30
592;DHT22;283;53.608;10.046;2022-11-20T11:02:39;3.10;91.60
592;DHT22;283;53.608;10.046;2022-11-20T11:05:11;3.10;91.60
592;DHT22;283;53.608;10.046;2022-11-20T11:07:43;3.10;91.70
592;DHT22;283;53.608;10.046;2022-11-20T11:10:14;3.10;91.70
592;DHT22;283;53.608;10.046;2022-11-20T11:12:43;3.40;92.10
592;DHT22;283;53.608;10.046;2022-11-20T11:15:12;3.30;91.60
592;DHT22;283;53.608;10.046;2022-11-20T11:17:45;3.30;91.50
592;DHT22;283;53.608;10.046;2022-11-20T11:20:17;3.60;91.60
592;DHT22;283;53.608;10.046;2022-11-20T11:22:48;3.60;91.00
592;DHT22;283;53.608;10.046;2022-11-20T11:25:23;3.70;91.10
592;DHT22;283;53.608;10.046;2022-11-20T11:27:52;3.50;90.90
592;DHT22;283;53.608;10.046;2022-11-20T11:30:21;3.20;90.40
592;DHT22;283;53.608;10.046;2022-11-20T11:32:49;3.10;90.70
592;DHT22;283;53.608;10.046;2022-11-20T11:35:24;3.00;91.20
592;DHT22;283;53.608;10.046;2022-11-20T11:38:01;3.40;90.80
592;DHT22;283;53.608;10.046;2022-11-20T11:40:29;3.20;91.10
592;DHT22;283;53.608;10.046;2022-11-20T11:42:58;3.30;90.20
592;DHT22;283;53.608;10.046;2022-11-20T11:45:30;3.30;90.50
592;DHT22;283;53.608;10.046;2022-11-20T11:47:57;3.60;90.60
592;DHT22;283;53.608;10.046;2022-11-20T11:50:25;3.50;90.20
592;DHT22;283;53.608;10.046;2022-11-20T11:52:57;3.50;89.10
592;DHT22;283;53.608;10.046;2022-11-20T11:55:29;3.60;90.70
592;DHT22;283;53.608;10.046;2022-11-20T11:58:01;3.70;89.40
592;DHT22;283;53.608;10.046;2022-11-20T12:00:31;3.70;90.00
592;DHT22;283;53.608;10.046;2022-11-20T12:03:03;3.70;89.30
592;DHT22;283;53.608;10.046;2022-11-20T12:05:35;3.90;89.80
592;DHT22;283;53.608;10.046;2022-11-20T12:08:06;3.80;89.70
592;DHT22;283;53.608;10.046;2022-11-20T12:10:40;3.80;88.70
592;DHT22;283;53.608;10.046;2022-11-20T12:13:15;3.90;88.50
592;DHT22;283;53.608;10.046;2022-11-20T12:15:46;4.00;88.10
592;DHT22;283;53.608;10.046;2022-11-20T12:18:14;4.00;87.60
592;DHT22;283;53.608;10.046;2022-11-20T12:20:44;4.10;88.20
592;DHT22;283;53.608;10.046;2022-11-20T12:23:17;4.00;88.00
592;DHT22;283;53.608;10.046;2022-11-20T12:25:46;4.10;86.80
592;DHT22;283;53.608;10.046;2022-11-20T12:28:21;4.00;86.40
592;DHT22;283;53.608;10.046;2022-11-20T12:30:57;4.00;87.70
592;DHT22;283;53.608;10.046;2022-11-20T12:33:33;3.90;87.50
592;DHT22;283;53.608;10.046;2022-11-20T12:36:12;3.90;88.00
592;DHT22;283;53.608;10.046;2022-11-20T12:41:40;4.10;87.60
592;DHT22;283;53.608;10.046;2022-11-20T12:44:35;4.20;86.70
592;DHT22;283;53.608;10.046;2022-11-20T12:47:48;4.10;86.70
592;DHT22;283;53.608;10.046;2022-11-20T12:50:31;4.00;86.80
592;DHT22;283;53.608;10.046;2022-11-20T12:53:27;4.00;87.20
592;DHT22;283;53.608;10.046;2022-11-20T12:59:12;4.10;87.10
592;DHT22;283;53.608;10.046;2022-11-20T13:01:45;4.20;86.60
592;DHT22;283;53.608;10.046;2022-11-20T13:04:18;4.30;86.60
592;DHT22;283;53.608;10.046;2022-11-20T13:06:50;4.20;86.70
592;DHT22;283;53.608;10.046;2022-11-20T13:09:19;4.20;87.20
592;DHT22;283;53.608;10.046;2022-11-20T13:11:50;4.30;87.00
592;DHT22;283;53.608;10.046;2022-11-20T13:14:26;4.10;86.20
592;DHT22;283;53.608;10.046;2022-11-20T13:16:58;4.10;86.60
592;DHT22;283;53.608;10.046;2022-11-20T13:19:31;4.20;86.30
592;DHT22;283;53.608;10.046;2022-11-20T13:21:59;4.20;87.10
592;DHT22;283;53.608;10.046;2022-11-20T13:24:28;4.30;86.80
592;DHT22;283;53.608;10.046;2022-11-20T13:26:59;4.20;87.00
592;DHT22;283;53.608;10.046;2022-11-20T13:29:29;4.20;86.20
592;DHT22;283;53.608;10.046;2022-11-20T13:32:04;4.60;86.70
592;DHT22;283;53.608;10.046;2022-11-20T13:34:35;4.30;86.20
592;DHT22;283;53.608;10.046;2022-11-20T13:37:03;4.30;86.30
592;DHT22;283;53.608;10.046;2022-11-20T13:39:31;4.40;85.80
592;DHT22;283;53.608;10.046;2022-11-20T13:42:00;4.10;86.00
592;DHT22;283;53.608;10.046;2022-11-20T13:44:31;4.10;86.80
592;DHT22;283;53.608;10.046;2022-11-20T13:47:00;4.10;86.20
592;DHT22;283;53.608;10.046;2022-11-20T13:49:29;4.20;86.50
592;DHT22;283;53.608;10.046;2022-11-20T13:52:01;4.20;86.40
592;DHT22;283;53.608;10.046;2022-11-20T13:57:35;4.10;87.10
592;DHT22;283;53.608;10.046;2022-11-20T14:00:11;4.00;86.50
592;DHT22;283;53.608;10.046;2022-11-20T14:02:39;4.20;86.80
592;DHT22;283;53.608;10.046;2022-11-20T14:05:11;4.30;86.60
592;DHT22;283;53.608;10.046;2022-11-20T14:07:42;4.10;86.90
592;DHT22;283;53.608;10.046;2022-11-20T14:10:18;4.20;87.10
592;DHT22;283;53.608;10.046;2022-11-20T14:12:46;4.10;87.00
592;DHT22;283;53.608;10.046;2022-11-20T14:15:25;4.20;86.50
592;DHT22;283;53.608;10.046;2022-11-20T14:17:52;4.20;87.10
592;DHT22;283;53.608;10.046;2022-11-20T14:20:20;4.00;86.70
592;DHT22;283;53.608;10.046;2022-11-20T14:22:52;4.00;86.10
592;DHT22;283;53.608;10.046;2022-11-20T14:25:20;4.00;86.40
592;DHT22;283;53.608;10.046;2022-11-20T14:27:50;4.00;87.20
592;DHT22;283;53.608;10.046;2022-11-20T14:30:20;4.00;87.50
592;DHT22;283;53.608;10.046;2022-11-20T14:32:50;4.00;88.30
592;DHT22;283;53.608;10.046;2022-11-20T14:35:20;4.00;86.20
592;DHT22;283;53.608;10.046;2022-11-20T14:37:49;4.00;86.80
592;DHT22;283;53.608;10.046;2022-11-20T14:40:23;3.90;87.50
592;DHT22;283;53.608;10.046;2022-11-20T14:42:51;4.00;86.40
592;DHT22;283;53.608;10.046;2022-11-20T14:45:19;3.70;87.40
592;DHT22;283;53.608;10.046;2022-11-20T14:47:47;3.80;86.30
592;DHT22;283;53.608;10.046;2022-11-20T14:50:18;3.80;86.30
592;DHT22;283;53.608;10.046;2022-11-20T14:52:50;3.70;86.80
592;DHT22;283;53.608;10.046;2022-11-20T14:55:24;3.50;87.00
592;DHT22;283;53.608;10.046;2022-11-20T14:57:56;3.50;87.40
592;DHT22;283;53.608;10.046;2022-11-20T15:00:25;3.50;88.10
592;DHT22;283;53.608;10.046;2022-11-20T15:02:53;3.70;87.60
592;DHT22;283;53.608;10.046;2022-11-20T15:05:23;3.60;87.10
592;DHT22;283;53.608;10.046;2022-11-20T15:07:52;3.70;87.00
592;DHT22;283;53.608;10.046;2022-11-20T15:10:31;3.60;87.30
592;DHT22;283;53.608;10.046;2022-11-20T15:13:00;3.70;87.20
592;DHT22;283;53.608;10.046;2022-11-20T15:15:33;3.70;87.70
592;DHT22;283;53.608;10.046;2022-11-20T15:18:02;3.80;87.40
592;DHT22;283;53.608;10.046;2022-11-20T15:20:32;3.80;86.90
592;DHT22;283;53.608;10.046;2022-11-20T15:23:00;3.80;86.70
592;DHT22;283;53.608;10.046;2022-11-20T15:25:27;3.90;86.90
592;DHT22;283;53.608;10.046;2022-11-20T15:27:55;3.80;87.40
592;DHT22;283;53.608;10.046;2022-11-20T15:30:23;3.80;86.90
592;DHT22;283;53.608;10.046;2022-11-20T15:32:51;3.70;87.30
592;DHT22;283;53.608;10.046;2022-11-20T15:35:19;3.70;86.90
592;DHT22;283;53.608;10.046;2022-11-20T15:37:48;3.70;87.00
592;DHT22;283;53.608;10.046;2022-11-20T15:40:15;3.70;87.00
592;DHT22;283;53.608;10.046;2022-11-20T15:42:43;3.60;87.40
592;DHT22;283;53.608;10.046;2022-11-20T15:45:36;3.60;87.70
592;DHT22;283;53.608;10.046;2022-11-20T15:48:05;3.70;87.90
592;DHT22;283;53.608;10.046;2022-11-20T15:50:37;3.70;86.80
592;DHT22;283;53.608;10.046;2022-11-20T15:53:07;3.70;86.80
592;DHT22;283;53.608;10.046;2022-11-20T15:55:35;3.70;86.80
592;DHT22;283;53.608;10.046;2022-11-20T15:58:03;3.80;86.60
592;DHT22;283;53.608;10.046;2022-11-20T16:00:30;3.60;86.80
592;DHT22;283;53.608;10.046;2022-11-20T16:02:58;3.70;86.80
592;DHT22;283;53.608;10.046;2022-11-20T16:05:27;3.60;86.80
592;DHT22;283;53.608;10.046;2022-11-20T16:07:54;3.80;86.70
592;DHT22;283;53.608;10.046;2022-11-20T16:10:24;3.70;86.50
592;DHT22;283;53.608;10.046;2022-11-20T16:12:51;3.70;86.70
592;DHT22;283;53.608;10.046;2022-11-20T16:15:37;3.70;86.90
592;DHT22;283;53.608;10.046;2022-11-20T16:18:14;3.80;87.60
592;DHT22;283;53.608;10.046;2022-11-20T16:20:42;3.80;87.90
592;DHT22;283;53.608;10.046;2022-11-20T16:23:10;3.80;85.80
592;DHT22;283;53.608;10.046;2022-11-20T16:25:39;4.10;86.20
592;DHT22;283;53.608;10.046;2022-11-20T16:28:07;3.80;85.60
592;DHT22;283;53.608;10.046;2022-11-20T16:30:40;3.70;85.20
592;DHT22;283;53.608;10.046;2022-11-20T16:33:09;3.80;85.10
592;DHT22;283;53.608;10.046;2022-11-20T16:35:37;3.70;85.40
592;DHT22;283;53.608;10.046;2022-11-20T16:38:05;3.90;84.90
592;DHT22;283;53.608;10.046;2022-11-20T16:40:32;3.60;85.80
592;DHT22;283;53.608;10.046;2022-11-20T16:43:06;3.70;87.20
592;DHT22;283;53.608;10.046;2022-11-20T16:45:33;3.70;86.60
592;DHT22;283;53.608;10.046;2022-11-20T16:48:01;3.70;86.60
592;DHT22;283;53.608;10.046;2022-11-20T16:50:28;3.70;86.60
592;DHT22;283;53.608;10.046;2022-11-20T16:52:56;3.70;86.50
592;DHT22;283;53.608;10.046;2022-11-20T16:55:24;3.70;87.20
592;DHT22;283;53.608;10.046;2022-11-20T16:57:51;3.70;87.20
592;DHT22;283;53.608;10.046;2022-11-20T17:00:20;3.70;87.30
592;DHT22;283;53.608;10.046;2022-11-20T17:02:48;3.70;87.70
592;DHT22;283;53.608;10.046;2022-11-20T17:05:15;3.70;87.50
592;DHT22;283;53.608;10.046;2022-11-20T17:07:43;3.80;87.60
592;DHT22;283;53.608;10.046;2022-11-20T17:10:11;3.70;88.40
592;DHT22;283;53.608;10.046;2022-11-20T17:12:38;3.70;88.30
592;DHT22;283;53.608;10.046;2022-11-20T17:15:06;3.70;88.00
592;DHT22;283;53.608;10.046;2022-11-20T17:17:35;3.70;87.90